Jarrow, United Kingdom
Current Conditions -  °F | °C
As of 2:20 PM on Friday 28 Nov 2014 (Local Time) from EGNT Reporting Station
Haze Haze  
Wind Chill: 45°   Ceiling: 300
Heat Index: 48°   Visibility: 1.1mi
Dew Point: 48°   Wind: 8mph
Humidity: 100%   Direction: 100°E
Pressure: 29.77"   Gusts: NA
Location:  54.98°N, 1.48°W
Report Text: EGNT 281420Z 10007KT 1800 BR BKN003 09/09 Q1008
Loading
Personal Weather Stations






























Interactive Weather Map New forecast layout! Learn more

10-Day Weather Forecast

Advertisements
Track Severe Weather on mobile